AEE57M LGAV-EDDS
Flight info
| Callsign | AEE57M |
|---|---|
| Flight time | 2h 32m |
| Altitude | 36000 |
| Route | KOR UL53 ELVAS DCT DIMIS DCT ADDER DCT PETAK DCT GLOMY DCT ELTIB DCT NIVES DCT GORPA DCT INGID DCT SBG DCT TITIG L173 MAH/N0411F240 L173 DODIL T127 TEKSI |
| Aircraft | A320/M-SDE3FGHIRWY/LB1 |
Departure
| Time | 2026-05-04 11:16 |
|---|---|
| Airport | Athens Eleftherios Venizelos International Airport (LGAV) |
Arrival
| Time | 2026-05-04 13:48 |
|---|---|
| Airport | Stuttgart Airport (EDDS) |
| Time | Latitude | Longitude | Altitude | Speed | Heading |
|---|---|---|---|---|---|
| 2026-05-04 10:56 | 37.94163 | 23.95299 | 301 ft | 0 kts | 217° |
| 2026-05-04 11:05 | 37.94260 | 23.95342 | 301 ft | 0 kts | 127° |
| 2026-05-04 11:08 | 37.94225 | 23.95401 | 302 ft | 5 kts | 127° |
| 2026-05-04 11:10 | 37.93704 | 23.95333 | 298 ft | 21 kts | 216° |
| 2026-05-04 11:12 | 37.93132 | 23.94909 | 298 ft | 0 kts | 72° |
| 2026-05-04 11:13 | 37.93132 | 23.94910 | 298 ft | 0 kts | 72° |
| 2026-05-04 11:13 | 37.93140 | 23.94936 | 300 ft | 7 kts | 68° |
| 2026-05-04 11:13 | 37.93163 | 23.95022 | 294 ft | 13 kts | 83° |
| 2026-05-04 11:13 | 37.93190 | 23.95122 | 292 ft | 9 kts | 35° |
| 2026-05-04 11:14 | 37.93192 | 23.95124 | 292 ft | 0 kts | 35° |
| 2026-05-04 11:16 | 37.97376 | 23.99157 | 2194 ft | 165 kts | 33° |
| 2026-05-04 11:16 | 37.98284 | 24.00082 | 2676 ft | 170 kts | 33° |
| 2026-05-04 11:16 | 37.99235 | 24.01035 | 3105 ft | 181 kts | 33° |
| 2026-05-04 11:17 | 38.00279 | 24.02027 | 3479 ft | 195 kts | 33° |
| 2026-05-04 11:17 | 38.01439 | 24.03073 | 3748 ft | 217 kts | 31° |
| 2026-05-04 11:19 | 38.11821 | 24.00577 | 8687 ft | 265 kts | 308° |
| 2026-05-04 11:19 | 38.12578 | 23.98420 | 9481 ft | 274 kts | 283° |
| 2026-05-04 11:19 | 38.12607 | 23.95966 | 10240 ft | 282 kts | 271° |
| 2026-05-04 11:19 | 38.12490 | 23.93402 | 10600 ft | 302 kts | 270° |
| 2026-05-04 11:20 | 38.12360 | 23.90639 | 10782 ft | 325 kts | 270° |
| 2026-05-04 11:20 | 38.12296 | 23.87693 | 11055 ft | 338 kts | 279° |
| 2026-05-04 11:20 | 38.12901 | 23.84824 | 11604 ft | 337 kts | 298° |
| 2026-05-04 11:20 | 38.14183 | 23.82386 | 12204 ft | 338 kts | 310° |
| 2026-05-04 11:22 | 38.24764 | 23.65522 | 16384 ft | 359 kts | 310° |
| 2026-05-04 11:22 | 38.25814 | 23.63839 | 16754 ft | 361 kts | 310° |
| 2026-05-04 11:23 | 38.27383 | 23.61323 | 17316 ft | 364 kts | 310° |
| 2026-05-04 11:23 | 38.28967 | 23.58781 | 17874 ft | 368 kts | 310° |
| 2026-05-04 11:24 | 38.38676 | 23.43186 | 21014 ft | 381 kts | 311° |
| 2026-05-04 11:25 | 38.40315 | 23.40549 | 21615 ft | 377 kts | 311° |
| 2026-05-04 11:25 | 38.41935 | 23.37936 | 22299 ft | 374 kts | 311° |
| 2026-05-04 11:25 | 38.43545 | 23.35334 | 22881 ft | 374 kts | 311° |
| 2026-05-04 11:26 | 38.46769 | 23.30123 | 23864 ft | 375 kts | 311° |
| 2026-05-04 11:27 | 38.58256 | 23.11500 | 26197 ft | 392 kts | 311° |
| 2026-05-04 11:28 | 38.59945 | 23.08752 | 26585 ft | 392 kts | 312° |
| 2026-05-04 11:28 | 38.61620 | 23.06022 | 27054 ft | 391 kts | 311° |
| 2026-05-04 11:28 | 38.63298 | 23.03284 | 27464 ft | 392 kts | 311° |
| 2026-05-04 11:28 | 38.64984 | 23.00536 | 27827 ft | 393 kts | 311° |
| 2026-05-04 11:29 | 38.66679 | 22.97774 | 28195 ft | 395 kts | 311° |
| 2026-05-04 11:29 | 38.68367 | 22.95018 | 28668 ft | 393 kts | 311° |
| 2026-05-04 11:29 | 38.70050 | 22.92261 | 29172 ft | 392 kts | 311° |
| 2026-05-04 11:29 | 38.71722 | 22.89516 | 29674 ft | 390 kts | 311° |
| 2026-05-04 11:31 | 38.83244 | 22.70588 | 32760 ft | 379 kts | 311° |
| 2026-05-04 11:33 | 38.94518 | 22.51951 | 35040 ft | 380 kts | 311° |
| 2026-05-04 11:33 | 38.96159 | 22.49231 | 35258 ft | 381 kts | 311° |
| 2026-05-04 11:33 | 38.97786 | 22.46539 | 35514 ft | 382 kts | 311° |
| 2026-05-04 11:34 | 38.99394 | 22.43877 | 35734 ft | 382 kts | 311° |
| 2026-05-04 11:34 | 39.01020 | 22.41174 | 36000 ft | 382 kts | 311° |
| 2026-05-04 11:34 | 39.02651 | 22.38463 | 36138 ft | 384 kts | 311° |
| 2026-05-04 11:34 | 39.04301 | 22.35723 | 36166 ft | 391 kts | 311° |
| 2026-05-04 11:35 | 39.07648 | 22.30146 | 36164 ft | 396 kts | 311° |
| 2026-05-04 11:35 | 39.11012 | 22.24520 | 36163 ft | 397 kts | 311° |
| 2026-05-04 11:36 | 39.14379 | 22.18884 | 36158 ft | 397 kts | 311° |
| 2026-05-04 11:36 | 39.17743 | 22.13243 | 36160 ft | 397 kts | 311° |
| 2026-05-04 11:37 | 39.21109 | 22.07600 | 36155 ft | 397 kts | 311° |
| 2026-05-04 11:37 | 39.24471 | 22.01943 | 36157 ft | 397 kts | 311° |
| 2026-05-04 11:38 | 39.27835 | 21.96284 | 36162 ft | 397 kts | 311° |
| 2026-05-04 11:38 | 39.31194 | 21.90619 | 36165 ft | 398 kts | 311° |
| 2026-05-04 11:39 | 39.34553 | 21.84940 | 36163 ft | 398 kts | 311° |
| 2026-05-04 11:41 | 39.46285 | 21.65005 | 36154 ft | 398 kts | 310° |
| 2026-05-04 11:41 | 39.49644 | 21.59296 | 36158 ft | 398 kts | 310° |
| 2026-05-04 11:42 | 39.52995 | 21.53579 | 36164 ft | 399 kts | 310° |
| 2026-05-04 11:42 | 39.56345 | 21.47846 | 36164 ft | 399 kts | 310° |
| 2026-05-04 11:43 | 39.59690 | 21.42109 | 36164 ft | 399 kts | 310° |
| 2026-05-04 11:43 | 39.63015 | 21.36396 | 36160 ft | 399 kts | 310° |
| 2026-05-04 11:44 | 39.66364 | 21.30648 | 36153 ft | 399 kts | 310° |
| 2026-05-04 11:44 | 39.69708 | 21.24887 | 36123 ft | 399 kts | 310° |
| 2026-05-04 11:45 | 39.73046 | 21.19125 | 36080 ft | 399 kts | 310° |
| 2026-05-04 11:45 | 39.76388 | 21.13358 | 36017 ft | 399 kts | 310° |
| 2026-05-04 11:46 | 39.79725 | 21.07583 | 35996 ft | 399 kts | 310° |
| 2026-05-04 11:46 | 39.83052 | 21.01791 | 35988 ft | 400 kts | 310° |
| 2026-05-04 11:47 | 39.86388 | 20.95997 | 35978 ft | 400 kts | 310° |
| 2026-05-04 11:47 | 39.89720 | 20.90193 | 35991 ft | 400 kts | 310° |
| 2026-05-04 11:48 | 39.93051 | 20.84378 | 36017 ft | 400 kts | 310° |
| 2026-05-04 11:48 | 39.96379 | 20.78564 | 36029 ft | 400 kts | 310° |
| 2026-05-04 11:49 | 39.99708 | 20.72738 | 36070 ft | 401 kts | 310° |
| 2026-05-04 11:49 | 40.03032 | 20.66897 | 36114 ft | 401 kts | 310° |
| 2026-05-04 11:50 | 40.06469 | 20.61188 | 36125 ft | 398 kts | 318° |
| 2026-05-04 11:50 | 40.10965 | 20.57094 | 36118 ft | 395 kts | 334° |
| 2026-05-04 11:51 | 40.15910 | 20.53964 | 36115 ft | 396 kts | 334° |
| 2026-05-04 11:51 | 40.20853 | 20.50789 | 36117 ft | 396 kts | 334° |
| 2026-05-04 11:52 | 40.25806 | 20.47597 | 36115 ft | 397 kts | 334° |
| 2026-05-04 11:52 | 40.30730 | 20.44435 | 36109 ft | 397 kts | 334° |
| 2026-05-04 11:53 | 40.35717 | 20.41238 | 36126 ft | 396 kts | 334° |
| 2026-05-04 11:53 | 40.40668 | 20.38041 | 36122 ft | 396 kts | 334° |
| 2026-05-04 11:55 | 40.60181 | 20.24582 | 36132 ft | 398 kts | 329° |
| 2026-05-04 11:56 | 40.64914 | 20.20786 | 36127 ft | 399 kts | 329° |
| 2026-05-04 11:56 | 40.69681 | 20.17042 | 36123 ft | 399 kts | 330° |
| 2026-05-04 11:57 | 40.74465 | 20.13321 | 36105 ft | 400 kts | 330° |
| 2026-05-04 11:57 | 40.79251 | 20.09592 | 36121 ft | 399 kts | 330° |
| 2026-05-04 11:58 | 40.84029 | 20.05856 | 36140 ft | 399 kts | 330° |
| 2026-05-04 11:58 | 40.88801 | 20.02116 | 36139 ft | 399 kts | 330° |
| 2026-05-04 11:59 | 40.93567 | 19.98357 | 36139 ft | 399 kts | 330° |
| 2026-05-04 11:59 | 40.98339 | 19.94592 | 36136 ft | 399 kts | 330° |
| 2026-05-04 12:00 | 41.03114 | 19.90834 | 36141 ft | 399 kts | 330° |
| 2026-05-04 12:00 | 41.07889 | 19.87069 | 36148 ft | 399 kts | 330° |
| 2026-05-04 12:01 | 41.12663 | 19.83293 | 36148 ft | 399 kts | 330° |
| 2026-05-04 12:02 | 41.29320 | 19.70090 | 36156 ft | 399 kts | 329° |
| 2026-05-04 12:03 | 41.34073 | 19.66296 | 36160 ft | 399 kts | 329° |
| 2026-05-04 12:03 | 41.38833 | 19.62493 | 36158 ft | 399 kts | 329° |
| 2026-05-04 12:04 | 41.43597 | 19.58683 | 36160 ft | 399 kts | 329° |
| 2026-05-04 12:04 | 41.48364 | 19.54865 | 36160 ft | 399 kts | 329° |
| 2026-05-04 12:05 | 41.53125 | 19.51050 | 36163 ft | 400 kts | 329° |
| 2026-05-04 12:05 | 41.57890 | 19.47224 | 36161 ft | 400 kts | 329° |
| 2026-05-04 12:06 | 41.62664 | 19.43389 | 36149 ft | 400 kts | 329° |
| 2026-05-04 12:06 | 41.67435 | 19.39538 | 36154 ft | 401 kts | 329° |
| 2026-05-04 12:07 | 41.72209 | 19.35684 | 36155 ft | 401 kts | 329° |
| 2026-05-04 12:07 | 41.76948 | 19.31849 | 36157 ft | 401 kts | 329° |
| 2026-05-04 12:08 | 41.81656 | 19.27834 | 36156 ft | 402 kts | 327° |
| 2026-05-04 12:08 | 41.86283 | 19.23621 | 36152 ft | 402 kts | 326° |
| 2026-05-04 12:09 | 41.90910 | 19.19393 | 36157 ft | 403 kts | 327° |
| 2026-05-04 12:09 | 41.95560 | 19.15197 | 36160 ft | 403 kts | 327° |
| 2026-05-04 12:10 | 42.00226 | 19.11014 | 36148 ft | 403 kts | 327° |
| 2026-05-04 12:10 | 42.04892 | 19.06828 | 36154 ft | 403 kts | 327° |
| 2026-05-04 12:11 | 42.08768 | 19.03334 | 36150 ft | 404 kts | 327° |
| 2026-05-04 12:11 | 42.13432 | 18.99110 | 36152 ft | 404 kts | 327° |
| 2026-05-04 12:12 | 42.18099 | 18.94878 | 36159 ft | 404 kts | 326° |
| 2026-05-04 12:12 | 42.22768 | 18.90642 | 36161 ft | 404 kts | 327° |
| 2026-05-04 12:14 | 42.41468 | 18.73594 | 36171 ft | 406 kts | 326° |
| 2026-05-04 12:15 | 42.46115 | 18.69337 | 36173 ft | 406 kts | 326° |
| 2026-05-04 12:15 | 42.50795 | 18.65043 | 36166 ft | 406 kts | 326° |
| 2026-05-04 12:16 | 42.55470 | 18.60745 | 36167 ft | 407 kts | 326° |
| 2026-05-04 12:16 | 42.60161 | 18.56421 | 36170 ft | 408 kts | 326° |
| 2026-05-04 12:17 | 42.64855 | 18.52090 | 36173 ft | 408 kts | 326° |
| 2026-05-04 12:17 | 42.69551 | 18.47750 | 36175 ft | 408 kts | 326° |
| 2026-05-04 12:18 | 42.74240 | 18.43407 | 36176 ft | 408 kts | 326° |
| 2026-05-04 12:18 | 42.78943 | 18.39054 | 36161 ft | 409 kts | 326° |
| 2026-05-04 12:19 | 42.83649 | 18.34682 | 36160 ft | 409 kts | 326° |
| 2026-05-04 12:19 | 42.88347 | 18.30295 | 36162 ft | 410 kts | 326° |
| 2026-05-04 12:20 | 42.93051 | 18.25903 | 36156 ft | 410 kts | 326° |
| 2026-05-04 12:20 | 42.97756 | 18.21499 | 36157 ft | 410 kts | 326° |
| 2026-05-04 12:21 | 43.02473 | 18.17092 | 36149 ft | 411 kts | 326° |
| 2026-05-04 12:21 | 43.07155 | 18.12696 | 36148 ft | 411 kts | 326° |
| 2026-05-04 12:22 | 43.11868 | 18.08257 | 36141 ft | 411 kts | 326° |
| 2026-05-04 12:22 | 43.16589 | 18.03819 | 36136 ft | 411 kts | 325° |
| 2026-05-04 12:23 | 43.21305 | 17.99374 | 36128 ft | 412 kts | 326° |
| 2026-05-04 12:23 | 43.26037 | 17.94898 | 36122 ft | 413 kts | 325° |
| 2026-05-04 12:24 | 43.30771 | 17.90400 | 36120 ft | 414 kts | 325° |
| 2026-05-04 12:24 | 43.35514 | 17.85902 | 36123 ft | 414 kts | 325° |
| 2026-05-04 12:25 | 43.40255 | 17.81394 | 36128 ft | 415 kts | 325° |
| 2026-05-04 12:25 | 43.45001 | 17.76871 | 36138 ft | 415 kts | 325° |
| 2026-05-04 12:26 | 43.49747 | 17.72343 | 36128 ft | 415 kts | 325° |
| 2026-05-04 12:26 | 43.54485 | 17.67807 | 36133 ft | 415 kts | 325° |
| 2026-05-04 12:27 | 43.59127 | 17.63089 | 36135 ft | 415 kts | 322° |
| 2026-05-04 12:27 | 43.63575 | 17.58026 | 36147 ft | 414 kts | 320° |
| 2026-05-04 12:28 | 43.67993 | 17.52898 | 36136 ft | 415 kts | 320° |
| 2026-05-04 12:28 | 43.72452 | 17.47815 | 36131 ft | 416 kts | 321° |
| 2026-05-04 12:29 | 43.76914 | 17.42800 | 36124 ft | 416 kts | 321° |
| 2026-05-04 12:29 | 43.81398 | 17.37742 | 36133 ft | 416 kts | 321° |
| 2026-05-04 12:30 | 43.85875 | 17.32669 | 36128 ft | 416 kts | 321° |
| 2026-05-04 12:30 | 43.90347 | 17.27582 | 36132 ft | 416 kts | 321° |
| 2026-05-04 12:31 | 43.94824 | 17.22476 | 36120 ft | 417 kts | 321° |
| 2026-05-04 12:31 | 43.99307 | 17.17360 | 36113 ft | 417 kts | 320° |
| 2026-05-04 12:32 | 44.06025 | 17.09676 | 36121 ft | 417 kts | 321° |
| 2026-05-04 12:33 | 44.10507 | 17.04555 | 36130 ft | 417 kts | 321° |
| 2026-05-04 12:33 | 44.14991 | 16.99409 | 36119 ft | 418 kts | 320° |
| 2026-05-04 12:34 | 44.19477 | 16.94232 | 36099 ft | 419 kts | 320° |
| 2026-05-04 12:34 | 44.23961 | 16.89039 | 36119 ft | 419 kts | 320° |
| 2026-05-04 12:35 | 44.28412 | 16.83880 | 36120 ft | 419 kts | 320° |
| 2026-05-04 12:35 | 44.32979 | 16.78830 | 36121 ft | 419 kts | 324° |
| 2026-05-04 12:36 | 44.37783 | 16.74217 | 36119 ft | 419 kts | 326° |
| 2026-05-04 12:36 | 44.42638 | 16.69681 | 36106 ft | 420 kts | 325° |
| 2026-05-04 12:37 | 44.47458 | 16.65053 | 36107 ft | 420 kts | 324° |
| 2026-05-04 12:37 | 44.52251 | 16.60365 | 36116 ft | 420 kts | 324° |
| 2026-05-04 12:38 | 44.57038 | 16.55659 | 36117 ft | 420 kts | 324° |
| 2026-05-04 12:38 | 44.61831 | 16.50949 | 36111 ft | 421 kts | 324° |
| 2026-05-04 12:39 | 44.66634 | 16.46231 | 36103 ft | 421 kts | 324° |
| 2026-05-04 12:39 | 44.71435 | 16.41505 | 36098 ft | 422 kts | 324° |
| 2026-05-04 12:40 | 44.76240 | 16.36765 | 36092 ft | 422 kts | 324° |
| 2026-05-04 12:40 | 44.81050 | 16.32019 | 36099 ft | 422 kts | 324° |
| 2026-05-04 12:41 | 44.85858 | 16.27250 | 36088 ft | 423 kts | 324° |
| 2026-05-04 12:41 | 44.90661 | 16.22467 | 36087 ft | 423 kts | 324° |
| 2026-05-04 12:42 | 44.95477 | 16.17679 | 36076 ft | 423 kts | 324° |
| 2026-05-04 12:42 | 45.00261 | 16.12915 | 36077 ft | 424 kts | 324° |
| 2026-05-04 12:43 | 45.05075 | 16.08101 | 36085 ft | 424 kts | 324° |
| 2026-05-04 12:43 | 45.09892 | 16.03283 | 36080 ft | 425 kts | 324° |
| 2026-05-04 12:44 | 45.14720 | 15.98452 | 36078 ft | 425 kts | 324° |
| 2026-05-04 12:44 | 45.19545 | 15.93602 | 36071 ft | 425 kts | 323° |
| 2026-05-04 12:45 | 45.24377 | 15.88745 | 36069 ft | 426 kts | 323° |
| 2026-05-04 12:45 | 45.29221 | 15.83915 | 36080 ft | 426 kts | 324° |
| 2026-05-04 12:46 | 45.34074 | 15.79063 | 36078 ft | 427 kts | 324° |
| 2026-05-04 12:46 | 45.38926 | 15.74195 | 36078 ft | 427 kts | 323° |
| 2026-05-04 12:47 | 45.43772 | 15.69312 | 36082 ft | 427 kts | 323° |
| 2026-05-04 12:47 | 45.48628 | 15.64417 | 36080 ft | 427 kts | 323° |
| 2026-05-04 12:48 | 45.53485 | 15.59519 | 36075 ft | 428 kts | 323° |
| 2026-05-04 12:48 | 45.58351 | 15.54602 | 36075 ft | 429 kts | 323° |
| 2026-05-04 12:49 | 45.63183 | 15.49701 | 36075 ft | 429 kts | 323° |
| 2026-05-04 12:49 | 45.68077 | 15.44732 | 36075 ft | 429 kts | 323° |
| 2026-05-04 12:50 | 45.72907 | 15.39813 | 36074 ft | 429 kts | 323° |
| 2026-05-04 12:50 | 45.77765 | 15.34844 | 36074 ft | 429 kts | 323° |
| 2026-05-04 12:51 | 45.82558 | 15.29748 | 36077 ft | 429 kts | 321° |
| 2026-05-04 12:51 | 45.87307 | 15.24559 | 36075 ft | 429 kts | 321° |
| 2026-05-04 12:52 | 45.92065 | 15.19381 | 36075 ft | 429 kts | 321° |
| 2026-05-04 12:52 | 45.96827 | 15.14204 | 36074 ft | 429 kts | 321° |
| 2026-05-04 12:53 | 46.01592 | 15.09025 | 36068 ft | 430 kts | 321° |
| 2026-05-04 12:53 | 46.06372 | 15.03845 | 36066 ft | 430 kts | 321° |
| 2026-05-04 12:54 | 46.11149 | 14.98642 | 36069 ft | 430 kts | 321° |
| 2026-05-04 12:54 | 46.15913 | 14.93413 | 36071 ft | 431 kts | 321° |
| 2026-05-04 12:55 | 46.20678 | 14.88171 | 36085 ft | 431 kts | 321° |
| 2026-05-04 12:55 | 46.25442 | 14.82933 | 36093 ft | 430 kts | 320° |
| 2026-05-04 12:56 | 46.30193 | 14.77702 | 36090 ft | 429 kts | 320° |
| 2026-05-04 12:56 | 46.34931 | 14.72450 | 36088 ft | 429 kts | 321° |
| 2026-05-04 12:57 | 46.39682 | 14.67184 | 36079 ft | 430 kts | 320° |
| 2026-05-04 12:57 | 46.44431 | 14.61906 | 36066 ft | 430 kts | 321° |
| 2026-05-04 12:58 | 46.49180 | 14.56625 | 36068 ft | 430 kts | 320° |
| 2026-05-04 12:58 | 46.53938 | 14.51333 | 36068 ft | 431 kts | 320° |
| 2026-05-04 12:59 | 46.58692 | 14.46022 | 36069 ft | 431 kts | 320° |
| 2026-05-04 12:59 | 46.63451 | 14.40692 | 36065 ft | 432 kts | 320° |
| 2026-05-04 13:00 | 46.68216 | 14.35349 | 36070 ft | 432 kts | 320° |
| 2026-05-04 13:00 | 46.72976 | 14.29991 | 36072 ft | 433 kts | 320° |
| 2026-05-04 13:01 | 46.77714 | 14.24650 | 36065 ft | 434 kts | 320° |
| 2026-05-04 13:01 | 46.82486 | 14.19257 | 36045 ft | 434 kts | 320° |
| 2026-05-04 13:02 | 46.87265 | 14.13844 | 36043 ft | 435 kts | 320° |
| 2026-05-04 13:02 | 46.92041 | 14.08423 | 36040 ft | 435 kts | 320° |
| 2026-05-04 13:03 | 46.96044 | 14.03867 | 36056 ft | 435 kts | 319° |
| 2026-05-04 13:03 | 47.00824 | 13.98419 | 36050 ft | 435 kts | 319° |
| 2026-05-04 13:04 | 47.05601 | 13.92967 | 36039 ft | 436 kts | 319° |
| 2026-05-04 13:04 | 47.10352 | 13.87520 | 36039 ft | 436 kts | 320° |
| 2026-05-04 13:05 | 47.15135 | 13.82027 | 36031 ft | 437 kts | 319° |
| 2026-05-04 13:05 | 47.19925 | 13.76519 | 36042 ft | 437 kts | 319° |
| 2026-05-04 13:06 | 47.24706 | 13.71000 | 36015 ft | 437 kts | 319° |
| 2026-05-04 13:06 | 47.29530 | 13.65520 | 36018 ft | 439 kts | 321° |
| 2026-05-04 13:07 | 47.34491 | 13.60262 | 36008 ft | 439 kts | 322° |
| 2026-05-04 13:07 | 47.39487 | 13.55056 | 36007 ft | 440 kts | 322° |
| 2026-05-04 13:08 | 47.44459 | 13.49786 | 36006 ft | 440 kts | 321° |
| 2026-05-04 13:08 | 47.49409 | 13.44474 | 36000 ft | 440 kts | 321° |
| 2026-05-04 13:09 | 47.54351 | 13.39151 | 35981 ft | 440 kts | 321° |
| 2026-05-04 13:09 | 47.59307 | 13.33814 | 35985 ft | 441 kts | 321° |
| 2026-05-04 13:10 | 47.64270 | 13.28459 | 35987 ft | 441 kts | 321° |
| 2026-05-04 13:10 | 47.69230 | 13.23105 | 35994 ft | 441 kts | 321° |
| 2026-05-04 13:11 | 47.74182 | 13.17744 | 35986 ft | 440 kts | 321° |
| 2026-05-04 13:11 | 47.79128 | 13.12374 | 35974 ft | 440 kts | 321° |
| 2026-05-04 13:12 | 47.84076 | 13.06992 | 35981 ft | 441 kts | 321° |
| 2026-05-04 13:12 | 47.89022 | 13.01587 | 35978 ft | 441 kts | 321° |
| 2026-05-04 13:13 | 47.93965 | 12.96173 | 35978 ft | 441 kts | 320° |
| 2026-05-04 13:13 | 47.98461 | 12.90085 | 35978 ft | 434 kts | 305° |
| 2026-05-04 13:14 | 48.01358 | 12.82325 | 35990 ft | 427 kts | 287° |
| 2026-05-04 13:14 | 48.02912 | 12.73804 | 35981 ft | 425 kts | 282° |
| 2026-05-04 13:15 | 48.04387 | 12.65235 | 35973 ft | 426 kts | 282° |
| 2026-05-04 13:15 | 48.05845 | 12.56657 | 35974 ft | 426 kts | 282° |
| 2026-05-04 13:16 | 48.07295 | 12.48062 | 35976 ft | 426 kts | 282° |
| 2026-05-04 13:16 | 48.08745 | 12.39468 | 35976 ft | 426 kts | 282° |
| 2026-05-04 13:17 | 48.10185 | 12.30860 | 35977 ft | 427 kts | 282° |
| 2026-05-04 13:17 | 48.11617 | 12.22248 | 35979 ft | 427 kts | 282° |
| 2026-05-04 13:18 | 48.13039 | 12.13630 | 35979 ft | 426 kts | 282° |
| 2026-05-04 13:18 | 48.14456 | 12.05069 | 35983 ft | 426 kts | 282° |
| 2026-05-04 13:19 | 48.15879 | 11.96387 | 35996 ft | 427 kts | 281° |
| 2026-05-04 13:19 | 48.17286 | 11.87758 | 35992 ft | 426 kts | 281° |
| 2026-05-04 13:20 | 48.18683 | 11.79182 | 35993 ft | 426 kts | 281° |
| 2026-05-04 13:20 | 48.20092 | 11.70497 | 35990 ft | 426 kts | 281° |
| 2026-05-04 13:21 | 48.21483 | 11.61847 | 36002 ft | 426 kts | 281° |
| 2026-05-04 13:21 | 48.22864 | 11.53203 | 35999 ft | 426 kts | 281° |
| 2026-05-04 13:22 | 48.24238 | 11.44560 | 35998 ft | 426 kts | 281° |
| 2026-05-04 13:22 | 48.25676 | 11.35952 | 35998 ft | 427 kts | 287° |
| 2026-05-04 13:23 | 48.28483 | 11.28068 | 35993 ft | 433 kts | 305° |
| 2026-05-04 13:23 | 48.32629 | 11.21440 | 36005 ft | 436 kts | 310° |
| 2026-05-04 13:24 | 48.36845 | 11.14876 | 35997 ft | 436 kts | 310° |
| 2026-05-04 13:24 | 48.41043 | 11.08286 | 35995 ft | 436 kts | 310° |
| 2026-05-04 13:25 | 48.47352 | 10.98387 | 35995 ft | 437 kts | 310° |
| 2026-05-04 13:25 | 48.51556 | 10.91786 | 35995 ft | 437 kts | 310° |
| 2026-05-04 13:26 | 48.55754 | 10.85166 | 36022 ft | 437 kts | 310° |
| 2026-05-04 13:26 | 48.59949 | 10.78523 | 36026 ft | 437 kts | 310° |
| 2026-05-04 13:27 | 48.64144 | 10.71877 | 36024 ft | 437 kts | 310° |
| 2026-05-04 13:27 | 48.68328 | 10.65204 | 36029 ft | 436 kts | 307° |
| 2026-05-04 13:28 | 48.71376 | 10.57456 | 36027 ft | 426 kts | 287° |
| 2026-05-04 13:28 | 48.72437 | 10.48742 | 35826 ft | 418 kts | 268° |
| 2026-05-04 13:29 | 48.72222 | 10.44376 | 35237 ft | 415 kts | 261° |
| 2026-05-04 13:29 | 48.71849 | 10.40031 | 34594 ft | 416 kts | 261° |
| 2026-05-04 13:29 | 48.71478 | 10.35687 | 33951 ft | 417 kts | 261° |
| 2026-05-04 13:29 | 48.71110 | 10.31322 | 33204 ft | 418 kts | 261° |
| 2026-05-04 13:30 | 48.70744 | 10.26942 | 32411 ft | 420 kts | 261° |
| 2026-05-04 13:30 | 48.70379 | 10.22544 | 31611 ft | 422 kts | 261° |
| 2026-05-04 13:30 | 48.70010 | 10.18121 | 30793 ft | 425 kts | 261° |
| 2026-05-04 13:30 | 48.69639 | 10.13731 | 29956 ft | 427 kts | 261° |
| 2026-05-04 13:31 | 48.69262 | 10.09272 | 29129 ft | 427 kts | 261° |
| 2026-05-04 13:31 | 48.68861 | 10.04843 | 28447 ft | 422 kts | 259° |
| 2026-05-04 13:31 | 48.68371 | 10.00486 | 27795 ft | 418 kts | 257° |
| 2026-05-04 13:31 | 48.67816 | 9.96197 | 27144 ft | 414 kts | 256° |
| 2026-05-04 13:32 | 48.67231 | 9.91947 | 26505 ft | 411 kts | 256° |
| 2026-05-04 13:32 | 48.66645 | 9.87741 | 25880 ft | 408 kts | 256° |
| 2026-05-04 13:32 | 48.66074 | 9.83555 | 25263 ft | 405 kts | 256° |
| 2026-05-04 13:32 | 48.65520 | 9.79396 | 24643 ft | 402 kts | 257° |
| 2026-05-04 13:33 | 48.64981 | 9.75264 | 24056 ft | 399 kts | 257° |
| 2026-05-04 13:33 | 48.64450 | 9.71156 | 23454 ft | 397 kts | 257° |
| 2026-05-04 13:33 | 48.63925 | 9.67085 | 22783 ft | 394 kts | 257° |
| 2026-05-04 13:33 | 48.63399 | 9.63033 | 22148 ft | 391 kts | 257° |
| 2026-05-04 13:34 | 48.62875 | 9.59023 | 21541 ft | 388 kts | 256° |
| 2026-05-04 13:34 | 48.62351 | 9.55036 | 20976 ft | 384 kts | 256° |
| 2026-05-04 13:34 | 48.61831 | 9.51090 | 20421 ft | 382 kts | 256° |
| 2026-05-04 13:34 | 48.61312 | 9.47169 | 19894 ft | 379 kts | 256° |
| 2026-05-04 13:35 | 48.60794 | 9.43282 | 19344 ft | 376 kts | 256° |
| 2026-05-04 13:35 | 48.59765 | 9.35592 | 18281 ft | 371 kts | 256° |
| 2026-05-04 13:35 | 48.59254 | 9.31778 | 17682 ft | 369 kts | 256° |
| 2026-05-04 13:36 | 48.58749 | 9.28002 | 17116 ft | 365 kts | 256° |
| 2026-05-04 13:36 | 48.58246 | 9.24263 | 16547 ft | 362 kts | 256° |
| 2026-05-04 13:36 | 48.57744 | 9.20552 | 15985 ft | 359 kts | 256° |
| 2026-05-04 13:36 | 48.57245 | 9.16881 | 15431 ft | 356 kts | 256° |
| 2026-05-04 13:37 | 48.56750 | 9.13235 | 14902 ft | 352 kts | 256° |
| 2026-05-04 13:37 | 48.56260 | 9.09633 | 14379 ft | 349 kts | 256° |
| 2026-05-04 13:37 | 48.55773 | 9.06056 | 13857 ft | 347 kts | 256° |
| 2026-05-04 13:37 | 48.55450 | 9.03696 | 13481 ft | 345 kts | 256° |
| 2026-05-04 13:38 | 48.54803 | 8.98977 | 12671 ft | 342 kts | 256° |
| 2026-05-04 13:38 | 48.54324 | 8.95470 | 12091 ft | 340 kts | 256° |
| 2026-05-04 13:38 | 48.53845 | 8.91986 | 11537 ft | 338 kts | 256° |
| 2026-05-04 13:38 | 48.53372 | 8.88559 | 10972 ft | 337 kts | 256° |
| 2026-05-04 13:39 | 48.52893 | 8.85103 | 10431 ft | 336 kts | 256° |
| 2026-05-04 13:39 | 48.52415 | 8.81667 | 10009 ft | 333 kts | 256° |
| 2026-05-04 13:39 | 48.51944 | 8.78282 | 9763 ft | 323 kts | 256° |
| 2026-05-04 13:39 | 48.51483 | 8.74988 | 9626 ft | 310 kts | 256° |
| 2026-05-04 13:40 | 48.51051 | 8.71900 | 9495 ft | 300 kts | 256° |
| 2026-05-04 13:40 | 48.50648 | 8.68866 | 9363 ft | 291 kts | 261° |
| 2026-05-04 13:40 | 48.50866 | 8.65844 | 9214 ft | 288 kts | 290° |
| 2026-05-04 13:40 | 48.52021 | 8.63446 | 8973 ft | 291 kts | 319° |
| 2026-05-04 13:41 | 48.53845 | 8.62206 | 8788 ft | 289 kts | 350° |
| 2026-05-04 13:41 | 48.55803 | 8.62455 | 8657 ft | 282 kts | 21° |
| 2026-05-04 13:41 | 48.57392 | 8.64049 | 8526 ft | 271 kts | 51° |
| 2026-05-04 13:42 | 48.58774 | 8.69054 | 8170 ft | 256 kts | 76° |
| 2026-05-04 13:42 | 48.59265 | 8.71611 | 7977 ft | 252 kts | 76° |
| 2026-05-04 13:42 | 48.59754 | 8.74142 | 7744 ft | 250 kts | 75° |
| 2026-05-04 13:42 | 48.60240 | 8.76648 | 7469 ft | 249 kts | 75° |
| 2026-05-04 13:43 | 48.60730 | 8.79165 | 7085 ft | 249 kts | 75° |
| 2026-05-04 13:43 | 48.61213 | 8.81696 | 6497 ft | 251 kts | 75° |
| 2026-05-04 13:43 | 48.61703 | 8.84247 | 6093 ft | 247 kts | 75° |
| 2026-05-04 13:43 | 48.62172 | 8.86665 | 5760 ft | 240 kts | 74° |
| 2026-05-04 13:44 | 48.62643 | 8.89102 | 5439 ft | 243 kts | 74° |
| 2026-05-04 13:44 | 48.63117 | 8.91555 | 5117 ft | 243 kts | 74° |
| 2026-05-04 13:44 | 48.63585 | 8.93979 | 4789 ft | 236 kts | 73° |
| 2026-05-04 13:44 | 48.64035 | 8.96310 | 4481 ft | 227 kts | 73° |
| 2026-05-04 13:45 | 48.64468 | 8.98563 | 4187 ft | 220 kts | 73° |
| 2026-05-04 13:45 | 48.64887 | 9.00742 | 3892 ft | 212 kts | 73° |
| 2026-05-04 13:45 | 48.65293 | 9.02851 | 3613 ft | 205 kts | 73° |
| 2026-05-04 13:45 | 48.65556 | 9.04222 | 3459 ft | 197 kts | 73° |
| 2026-05-04 13:46 | 48.65931 | 9.06178 | 3192 ft | 192 kts | 73° |
| 2026-05-04 13:46 | 48.66298 | 9.08097 | 2925 ft | 187 kts | 73° |
| 2026-05-04 13:46 | 48.66646 | 9.09917 | 2719 ft | 169 kts | 73° |
| 2026-05-04 13:46 | 48.66951 | 9.11518 | 2477 ft | 151 kts | 73° |
| 2026-05-04 13:47 | 48.67230 | 9.13012 | 2275 ft | 145 kts | 73° |
| 2026-05-04 13:47 | 48.67513 | 9.14458 | 2090 ft | 142 kts | 73° |
| 2026-05-04 13:47 | 48.67783 | 9.15901 | 1901 ft | 143 kts | 73° |
| 2026-05-04 13:47 | 48.68060 | 9.17343 | 1708 ft | 142 kts | 72° |
| 2026-05-04 13:48 | 48.68338 | 9.18771 | 1520 ft | 142 kts | 72° |
| 2026-05-04 13:48 | 48.68611 | 9.20207 | 1339 ft | 142 kts | 72° |
| 2026-05-04 13:48 | 48.68873 | 9.21585 | 1258 ft | 121 kts | 75° |
| 2026-05-04 13:48 | 48.69049 | 9.22518 | 1227 ft | 47 kts | 73° |
| 2026-05-04 13:49 | 48.69114 | 9.22828 | 1220 ft | 18 kts | 63° |
| 2026-05-04 13:49 | 48.69193 | 9.22990 | 1217 ft | 16 kts | 47° |
| 2026-05-04 13:49 | 48.69253 | 9.23096 | 1216 ft | 11 kts | 40° |
| 2026-05-04 13:49 | 48.69319 | 9.23156 | 1218 ft | 11 kts | 10° |
| 2026-05-04 13:50 | 48.69332 | 9.23083 | 1221 ft | 8 kts | 252° |
| 2026-05-04 13:50 | 48.69316 | 9.23001 | 1223 ft | 8 kts | 254° |
| 2026-05-04 13:50 | 48.69299 | 9.22914 | 1224 ft | 9 kts | 254° |
| 2026-05-04 13:50 | 48.69279 | 9.22809 | 1227 ft | 11 kts | 254° |
| 2026-05-04 13:51 | 48.69258 | 9.22699 | 1229 ft | 11 kts | 254° |
| 2026-05-04 13:51 | 48.69238 | 9.22589 | 1231 ft | 11 kts | 253° |
| 2026-05-04 13:51 | 48.69216 | 9.22477 | 1234 ft | 13 kts | 253° |
| 2026-05-04 13:51 | 48.69189 | 9.22335 | 1244 ft | 14 kts | 251° |
| 2026-05-04 13:52 | 48.69137 | 9.22062 | 1243 ft | 13 kts | 255° |
| 2026-05-04 13:52 | 48.69113 | 9.21929 | 1261 ft | 13 kts | 254° |
| 2026-05-04 13:52 | 48.69088 | 9.21799 | 1254 ft | 13 kts | 254° |
| 2026-05-04 13:53 | 48.69064 | 9.21672 | 1252 ft | 12 kts | 254° |
| 2026-05-04 13:53 | 48.69039 | 9.21545 | 1261 ft | 12 kts | 254° |
| 2026-05-04 13:53 | 48.69017 | 9.21425 | 1260 ft | 12 kts | 254° |
| 2026-05-04 13:54 | 48.68973 | 9.21191 | 1268 ft | 11 kts | 254° |
| 2026-05-04 13:54 | 48.68952 | 9.21081 | 1266 ft | 11 kts | 254° |
| 2026-05-04 13:54 | 48.68908 | 9.20849 | 1272 ft | 13 kts | 254° |
| 2026-05-04 13:55 | 48.68902 | 9.20723 | 1275 ft | 12 kts | 300° |
| 2026-05-04 13:55 | 48.68997 | 9.20572 | 1283 ft | 9 kts | 314° |
| 2026-05-04 13:55 | 48.69038 | 9.20508 | 1288 ft | 9 kts | 314° |
| 2026-05-04 13:56 | 48.69063 | 9.20442 | 1289 ft | 7 kts | 271° |
| 2026-05-04 13:56 | 48.69048 | 9.20355 | 1292 ft | 8 kts | 253° |
| 2026-05-04 13:56 | 48.69019 | 9.20206 | 1298 ft | 7 kts | 253° |
| 2026-05-04 13:57 | 48.69000 | 9.20101 | 1301 ft | 12 kts | 254° |
| 2026-05-04 13:57 | 48.68964 | 9.19990 | 1303 ft | 12 kts | 238° |
| 2026-05-04 13:58 | 48.68856 | 9.19639 | 1309 ft | 12 kts | 254° |
| 2026-05-04 13:58 | 48.68862 | 9.19536 | 1312 ft | 4 kts | 334° |
| 2026-05-04 13:58 | 48.68884 | 9.19526 | 1313 ft | 3 kts | 343° |
| 2026-05-04 13:59 | 48.68907 | 9.19516 | 1314 ft | 3 kts | 344° |
| 2026-05-04 13:59 | 48.68914 | 9.19513 | 1315 ft | 0 kts | 344° |